createdAt,value
2023-04-11T00:00:49.955Z,24.95
2023-04-11T00:01:50.265Z,24.96
2023-04-11T00:02:50.018Z,24.96
2023-04-11T00:03:50.193Z,24.96
2023-04-11T00:04:49.884Z,24.96
2023-04-11T00:05:49.908Z,24.95
2023-04-11T00:06:49.854Z,24.92
2023-04-11T00:07:49.819Z,24.93
2023-04-11T00:08:49.810Z,24.93
2023-04-11T00:09:49.798Z,24.92
2023-04-11T00:10:49.781Z,24.93
2023-04-11T00:11:49.739Z,24.95
2023-04-11T00:12:49.749Z,24.93
2023-04-11T00:13:49.745Z,24.95
2023-04-11T00:14:49.706Z,24.92
2023-04-11T00:15:49.713Z,24.93
2023-04-11T00:16:49.814Z,24.93
2023-04-11T00:17:49.742Z,24.91
2023-04-11T00:18:49.646Z,24.96
2023-04-11T00:19:49.675Z,24.93
2023-04-11T00:20:49.712Z,24.93
2023-04-11T00:21:49.747Z,24.92
2023-04-11T00:22:49.768Z,24.96
2023-04-11T00:23:49.790Z,24.95
2023-04-11T00:24:49.824Z,24.96
2023-04-11T00:25:49.845Z,24.95
2023-04-11T00:26:49.866Z,24.96
2023-04-11T00:27:49.884Z,24.95
2023-04-11T00:28:49.906Z,24.95
2023-04-11T00:29:49.930Z,24.93
2023-04-11T00:30:49.960Z,24.95
2023-04-11T00:31:50.070Z,24.95
2023-04-11T00:32:50.048Z,24.92
2023-04-11T00:33:50.036Z,24.92
2023-04-11T00:34:50.054Z,24.93
2023-04-11T00:35:50.120Z,24.92
2023-04-11T00:36:50.158Z,24.92
2023-04-11T00:37:50.119Z,24.92
2023-04-11T00:38:50.153Z,24.93
2023-04-11T00:39:50.170Z,24.93
2023-04-11T00:40:50.212Z,24.93
2023-04-11T00:41:50.224Z,24.92
2023-04-11T00:42:50.265Z,24.93
2023-04-11T00:43:50.292Z,24.91
2023-04-11T00:44:50.337Z,24.91
2023-04-11T00:45:50.419Z,24.95
2023-04-11T00:46:50.391Z,24.95
2023-04-11T00:47:50.457Z,24.93
2023-04-11T00:48:50.412Z,24.93
2023-04-11T00:49:50.441Z,24.93
2023-04-11T00:50:50.490Z,24.93
2023-04-11T00:51:50.491Z,24.93
2023-04-11T00:52:50.527Z,24.95
2023-04-11T00:53:50.541Z,24.93
2023-04-11T00:54:50.552Z,24.92
2023-04-11T00:55:50.595Z,24.95
2023-04-11T00:56:50.608Z,24.93
2023-04-11T00:57:50.629Z,24.91
2023-04-11T00:58:50.648Z,24.92
2023-04-11T00:59:50.665Z,24.93
2023-04-11T01:00:50.715Z,24.93
2023-04-11T01:01:51.218Z,24.92
2023-04-11T01:02:50.819Z,24.92
2023-04-11T01:03:50.952Z,24.92
2023-04-11T01:04:50.772Z,24.95
2023-04-11T01:05:50.798Z,24.95
2023-04-11T01:06:50.828Z,24.95
2023-04-11T01:07:50.858Z,24.95
2023-04-11T01:08:50.857Z,24.95
2023-04-11T01:09:50.873Z,24.93
2023-04-11T01:10:50.897Z,24.95
2023-04-11T01:11:50.938Z,24.92
2023-04-11T01:12:50.942Z,24.93
2023-04-11T01:13:50.988Z,24.95
2023-04-11T01:14:51.016Z,24.93
2023-04-11T01:15:51.032Z,24.92
2023-04-11T01:16:51.096Z,24.95
2023-04-11T01:17:51.116Z,24.92
2023-04-11T01:18:51.087Z,24.95
2023-04-11T01:19:51.126Z,24.95
2023-04-11T01:20:51.158Z,24.95
2023-04-11T01:21:51.207Z,24.91
2023-04-11T01:22:51.212Z,24.93
2023-04-11T01:23:51.229Z,24.95
2023-04-11T01:24:51.251Z,24.93
2023-04-11T01:25:51.293Z,24.93
2023-04-11T01:26:51.305Z,24.95
2023-04-11T01:27:51.338Z,24.92
2023-04-11T01:28:51.373Z,24.96
2023-04-11T01:29:51.399Z,24.93
2023-04-11T01:30:51.478Z,24.95
2023-04-11T01:31:51.445Z,24.95
2023-04-11T01:32:51.592Z,24.93
2023-04-11T01:33:51.492Z,24.93
2023-04-11T01:34:51.524Z,24.93
2023-04-11T01:35:51.570Z,24.95
2023-04-11T01:36:51.579Z,24.93
2023-04-11T01:37:51.602Z,24.93
2023-04-11T01:38:51.627Z,24.93
2023-04-11T01:39:51.640Z,24.91
2023-04-11T01:40:51.668Z,24.95
2023-04-11T01:41:51.704Z,24.92
2023-04-11T01:42:51.738Z,24.91
2023-04-11T01:43:51.761Z,24.91
2023-04-11T01:44:51.775Z,24.93
2023-04-11T01:45:51.798Z,24.91
2023-04-11T01:46:51.831Z,24.91
2023-04-11T01:47:51.935Z,24.92
2023-04-11T01:48:51.914Z,24.92
2023-04-11T01:49:51.911Z,24.89
2023-04-11T01:50:51.952Z,24.89
2023-04-11T01:51:51.986Z,24.92
2023-04-11T01:52:52.022Z,24.92
2023-04-11T01:53:52.022Z,24.91
2023-04-11T01:54:52.059Z,24.91
2023-04-11T01:55:52.135Z,24.91
2023-04-11T01:56:52.136Z,24.92
2023-04-11T01:57:52.168Z,24.92
2023-04-11T01:58:52.195Z,24.93
2023-04-11T01:59:52.219Z,24.92
2023-04-11T02:00:52.244Z,24.88
2023-04-11T02:01:52.307Z,24.93
2023-04-11T02:02:52.448Z,24.92
2023-04-11T02:03:52.395Z,24.92
2023-04-11T02:04:52.359Z,24.92
2023-04-11T02:05:52.387Z,24.93
2023-04-11T02:06:52.420Z,24.92
2023-04-11T02:07:52.465Z,24.92
2023-04-11T02:08:52.556Z,24.91
2023-04-11T02:09:52.518Z,24.91
2023-04-11T02:10:52.523Z,24.91
2023-04-11T02:11:52.596Z,24.92
2023-04-11T02:12:52.613Z,24.91
2023-04-11T02:13:52.787Z,24.91
2023-04-11T02:14:52.649Z,24.92
2023-04-11T02:15:52.766Z,24.95
2023-04-11T02:16:52.710Z,24.92
2023-04-11T02:17:52.792Z,24.93
2023-04-11T02:18:52.801Z,24.92
2023-04-11T02:19:52.785Z,24.92
2023-04-11T02:20:52.806Z,24.91
2023-04-11T02:21:52.836Z,24.92
2023-04-11T02:22:52.874Z,24.93
2023-04-11T02:23:52.908Z,24.92
2023-04-11T02:24:52.940Z,24.92
2023-04-11T02:25:52.957Z,24.91
2023-04-11T02:26:52.993Z,24.92
2023-04-11T02:27:53.035Z,24.92
2023-04-11T02:28:53.171Z,24.92
2023-04-11T02:29:53.069Z,24.91
2023-04-11T02:30:53.221Z,24.91
2023-04-11T02:31:53.187Z,24.91
2023-04-11T02:32:53.284Z,24.92
2023-04-11T02:33:53.192Z,24.92
2023-04-11T02:34:53.220Z,24.92
2023-04-11T02:35:53.320Z,24.91
2023-04-11T02:36:53.326Z,24.91
2023-04-11T02:37:53.324Z,24.89
2023-04-11T02:38:53.574Z,24.91
2023-04-11T02:39:53.378Z,24.93
2023-04-11T02:40:53.402Z,24.91
2023-04-11T02:41:53.441Z,24.91
2023-04-11T02:42:53.476Z,24.92
2023-04-11T02:43:53.511Z,24.89
2023-04-11T02:44:53.518Z,24.92
2023-04-11T02:46:01.931Z,24.89
2023-04-11T02:46:54.625Z,24.91
2023-04-11T02:47:53.591Z,24.91
2023-04-11T02:48:53.569Z,24.92
2023-04-11T02:49:53.512Z,24.88
2023-04-11T02:50:53.517Z,24.91
2023-04-11T02:51:53.509Z,24.89
2023-04-11T02:52:53.497Z,24.91
2023-04-11T02:53:53.482Z,24.89
2023-04-11T02:54:53.461Z,24.88
2023-04-11T02:55:53.455Z,24.91
2023-04-11T02:56:53.454Z,24.89
2023-04-11T02:57:53.452Z,24.89
2023-04-11T02:58:53.492Z,24.92
2023-04-11T02:59:53.430Z,24.89
2023-04-11T03:00:53.397Z,24.88
2023-04-11T03:01:53.459Z,24.88
2023-04-11T03:02:53.459Z,24.91
2023-04-11T03:03:53.503Z,24.89
2023-04-11T03:04:53.390Z,24.89
2023-04-11T03:05:53.369Z,24.88
2023-04-11T03:06:53.368Z,24.89
2023-04-11T03:07:53.371Z,24.89
2023-04-11T03:08:53.494Z,24.89
2023-04-11T03:09:53.329Z,24.88
2023-04-11T03:10:53.310Z,24.86
2023-04-11T03:11:53.311Z,24.86
2023-04-11T03:12:53.278Z,24.88
2023-04-11T03:13:53.282Z,24.89
2023-04-11T03:14:53.255Z,24.89
2023-04-11T03:15:53.264Z,24.85
2023-04-11T03:16:53.243Z,24.86
2023-04-11T03:17:53.304Z,24.85
2023-04-11T03:18:53.453Z,24.86
2023-04-11T03:19:53.307Z,24.86
2023-04-11T03:20:53.322Z,24.84
2023-04-11T03:21:53.363Z,24.84
2023-04-11T03:22:53.422Z,24.84
2023-04-11T03:23:53.433Z,24.85
2023-04-11T03:24:53.475Z,24.86
2023-04-11T03:25:53.521Z,24.86
2023-04-11T03:26:53.533Z,24.85
2023-04-11T03:27:53.562Z,24.86
2023-04-11T03:28:54.037Z,24.85
2023-04-11T03:29:53.695Z,24.85
2023-04-11T03:30:53.672Z,24.85
2023-04-11T03:31:53.702Z,24.86
2023-04-11T03:32:53.774Z,24.82
2023-04-11T03:33:53.776Z,24.85
2023-04-11T03:34:53.864Z,24.85
2023-04-11T03:35:53.881Z,24.86
2023-04-11T03:36:53.880Z,24.85
2023-04-11T03:37:53.840Z,24.82
2023-04-11T03:38:54.094Z,24.82
2023-04-11T03:39:53.810Z,24.84
2023-04-11T03:40:53.801Z,24.81
2023-04-11T03:41:53.779Z,24.82
2023-04-11T03:42:53.788Z,24.82
2023-04-11T03:43:53.766Z,24.84
2023-04-11T03:44:53.751Z,24.84
2023-04-11T03:45:53.760Z,24.84
2023-04-11T03:46:53.791Z,24.81
2023-04-11T03:47:53.710Z,24.84
2023-04-11T03:48:53.711Z,24.81
2023-04-11T03:49:53.706Z,24.79
2023-04-11T03:50:53.752Z,24.82
2023-04-11T03:51:53.794Z,24.82
2023-04-11T03:52:53.814Z,24.79
2023-04-11T03:53:53.881Z,24.79
2023-04-11T03:54:53.899Z,24.81
2023-04-11T03:55:53.929Z,24.79
2023-04-11T03:56:53.962Z,24.81
2023-04-11T03:57:53.994Z,24.84
2023-04-11T03:58:54.168Z,24.81
2023-04-11T03:59:54.056Z,24.81
2023-04-11T04:00:54.104Z,24.79
2023-04-11T04:01:54.206Z,24.81
2023-04-11T04:02:54.319Z,24.79
2023-04-11T04:03:54.528Z,24.84
2023-04-11T04:04:54.254Z,24.78
2023-04-11T04:05:54.259Z,24.81
2023-04-11T04:06:54.273Z,24.81
2023-04-11T04:07:55.898Z,24.79
2023-04-11T04:08:54.347Z,24.81
2023-04-11T04:09:54.380Z,24.79
2023-04-11T04:10:54.414Z,24.81
2023-04-11T04:11:54.436Z,24.82
2023-04-11T04:12:54.490Z,24.82
2023-04-11T04:13:54.702Z,24.79
2023-04-11T04:14:54.523Z,24.81
2023-04-11T04:15:54.590Z,24.82
2023-04-11T04:16:54.686Z,24.81
2023-04-11T04:17:54.791Z,24.81
2023-04-11T04:18:54.677Z,24.78
2023-04-11T04:19:54.674Z,24.78
2023-04-11T04:20:54.717Z,24.79
2023-04-11T04:21:54.759Z,24.78
2023-04-11T04:22:54.769Z,24.78
2023-04-11T04:23:55.013Z,24.79
2023-04-11T04:24:54.827Z,24.79
2023-04-11T04:25:54.859Z,24.77
2023-04-11T04:26:54.902Z,24.77
2023-04-11T04:27:54.931Z,24.79
2023-04-11T04:28:54.963Z,24.78
2023-04-11T04:30:02.866Z,24.79
2023-04-11T04:30:55.982Z,24.77
2023-04-11T04:31:55.041Z,24.78
2023-04-11T04:32:55.132Z,24.77
2023-04-11T04:33:55.124Z,24.78
2023-04-11T04:34:55.010Z,24.78
2023-04-11T04:35:54.966Z,24.78
2023-04-11T04:36:54.951Z,24.78
2023-04-11T04:37:54.947Z,24.77
2023-04-11T04:38:54.951Z,24.74
2023-04-11T04:39:54.943Z,24.74
2023-04-11T04:40:54.932Z,24.75
2023-04-11T04:41:54.938Z,24.77
2023-04-11T04:42:54.915Z,24.75
2023-04-11T04:43:55.069Z,24.77
2023-04-11T04:44:54.899Z,24.77
2023-04-11T04:45:54.902Z,24.75
2023-04-11T04:46:54.876Z,24.77
2023-04-11T04:47:54.873Z,24.77
2023-04-11T04:48:54.866Z,24.77
2023-04-11T04:49:54.836Z,24.75
2023-04-11T04:50:54.837Z,24.78
2023-04-11T04:51:54.832Z,24.77
2023-04-11T04:52:54.800Z,24.78
2023-04-11T04:53:54.904Z,24.77
2023-04-11T04:54:54.797Z,24.75
2023-04-11T04:55:54.790Z,24.78
2023-04-11T04:56:54.770Z,24.77
2023-04-11T04:57:54.788Z,24.75
2023-04-11T04:58:54.746Z,24.77
2023-04-11T04:59:54.748Z,24.77
2023-04-11T05:00:54.785Z,24.78
2023-04-11T05:01:54.778Z,24.77
2023-04-11T05:02:54.928Z,24.75
2023-04-11T05:03:55.015Z,24.77
2023-04-11T05:04:54.687Z,24.77
2023-04-11T05:05:54.696Z,24.74
2023-04-11T05:06:54.662Z,24.75
2023-04-11T05:07:54.661Z,24.78
2023-04-11T05:08:54.656Z,24.77
2023-04-11T05:09:54.625Z,24.78
2023-04-11T05:10:54.618Z,24.77
2023-04-11T05:11:54.616Z,24.78
2023-04-11T05:12:54.602Z,24.77
2023-04-11T05:13:54.783Z,24.78
2023-04-11T05:14:54.571Z,24.75
2023-04-11T05:15:54.564Z,24.77
2023-04-11T05:16:54.573Z,24.77
2023-04-11T05:17:54.600Z,24.78
2023-04-11T05:18:54.540Z,24.78
2023-04-11T05:19:54.540Z,24.78
2023-04-11T05:20:54.583Z,24.78
2023-04-11T05:21:54.643Z,24.77
2023-04-11T05:22:54.616Z,24.79
2023-04-11T05:23:54.847Z,24.79
2023-04-11T05:24:54.631Z,24.77
2023-04-11T05:25:54.611Z,24.79
2023-04-11T05:26:54.586Z,24.79
2023-04-11T05:27:54.580Z,24.78
2023-04-11T05:28:54.649Z,24.77
2023-04-11T05:29:54.662Z,24.78
2023-04-11T05:30:54.760Z,24.77
2023-04-11T05:31:54.559Z,24.78
2023-04-11T05:32:54.568Z,24.81
2023-04-11T05:33:54.769Z,24.82
2023-04-11T05:34:57.274Z,24.82
2023-04-11T05:35:54.513Z,24.82
2023-04-11T05:36:54.510Z,24.82
2023-04-11T05:37:54.459Z,24.88
2023-04-11T05:38:54.439Z,24.86
2023-04-11T05:39:54.410Z,24.88
2023-04-11T05:40:54.399Z,24.89
2023-04-11T05:41:54.392Z,24.91
2023-04-11T05:42:54.401Z,24.92
2023-04-11T05:43:54.548Z,24.91
2023-04-11T05:44:54.338Z,24.95
2023-04-11T05:45:54.365Z,24.99
2023-04-11T05:46:54.328Z,25.02
2023-04-11T05:47:54.299Z,25.03
2023-04-11T05:48:54.298Z,25.08
2023-04-11T05:49:54.282Z,25.08
2023-04-11T05:50:54.221Z,25.13
2023-04-11T05:51:54.225Z,25.18
2023-04-11T05:52:54.188Z,25.19
2023-04-11T05:53:54.622Z,25.23
2023-04-11T05:54:54.176Z,25.22
2023-04-11T05:55:54.130Z,25.23
2023-04-11T05:56:54.112Z,25.25
2023-04-11T05:57:54.083Z,25.28
2023-04-11T05:58:54.065Z,25.32
2023-04-11T05:59:54.058Z,25.36
2023-04-11T06:00:54.034Z,25.37
2023-04-11T06:01:54.003Z,25.36
2023-04-11T06:02:54.131Z,25.41
2023-04-11T06:03:54.308Z,25.41
2023-04-11T06:04:53.968Z,25.41
2023-04-11T06:05:53.922Z,25.43
2023-04-11T06:06:53.930Z,25.47
2023-04-11T06:07:53.894Z,25.48
2023-04-11T06:08:53.879Z,25.51
2023-04-11T06:09:54.106Z,25.54
2023-04-11T06:10:53.857Z,25.53
2023-04-11T06:11:53.830Z,25.57
2023-04-11T06:12:53.840Z,25.58
2023-04-11T06:13:54.036Z,25.58
2023-04-11T06:14:53.824Z,25.60
2023-04-11T06:15:53.824Z,25.64
2023-04-11T06:16:53.818Z,25.63
2023-04-11T06:17:53.800Z,25.64
2023-04-11T06:18:53.775Z,25.67
2023-04-11T06:19:53.771Z,25.67
2023-04-11T06:20:53.746Z,25.65
2023-04-11T06:21:53.711Z,25.67
2023-04-11T06:22:53.709Z,25.70
2023-04-11T06:23:53.919Z,25.71
2023-04-11T06:24:53.659Z,25.71
2023-04-11T06:25:53.620Z,25.74
2023-04-11T06:26:53.588Z,25.75
2023-04-11T06:27:53.562Z,25.77
2023-04-11T06:28:53.548Z,25.78
2023-04-11T06:29:53.525Z,25.81
2023-04-11T06:30:53.536Z,25.80
2023-04-11T06:31:53.556Z,25.84
2023-04-11T06:32:53.673Z,25.85
2023-04-11T06:33:53.655Z,25.87
2023-04-11T06:34:53.730Z,25.84
2023-04-11T06:35:53.785Z,25.87
2023-04-11T06:36:53.899Z,25.88
2023-04-11T06:37:53.826Z,25.89
2023-04-11T06:38:53.822Z,25.89
2023-04-11T06:39:53.849Z,25.92
2023-04-11T06:40:53.895Z,25.91
2023-04-11T06:41:53.936Z,25.91
2023-04-11T06:42:53.998Z,25.92
2023-04-11T06:43:54.372Z,25.94
2023-04-11T06:45:01.154Z,25.95
2023-04-11T06:45:54.039Z,25.84
2023-04-11T06:46:54.052Z,25.89
2023-04-11T06:47:54.065Z,25.92
2023-04-11T06:48:53.958Z,25.91
2023-04-11T06:49:53.945Z,25.92
2023-04-11T06:50:53.897Z,25.92
2023-04-11T06:51:53.871Z,25.95
2023-04-11T06:52:53.879Z,25.94
2023-04-11T06:53:54.099Z,25.96
2023-04-11T06:54:53.823Z,25.98
2023-04-11T06:55:53.780Z,25.98
2023-04-11T06:56:53.817Z,25.99
2023-04-11T06:57:53.835Z,26.02
2023-04-11T06:58:53.732Z,26.05
2023-04-11T06:59:53.703Z,25.99
2023-04-11T07:00:53.686Z,26.01
2023-04-11T07:01:53.667Z,26.01
2023-04-11T07:02:53.877Z,26.02
2023-04-11T07:03:53.858Z,26.01
2023-04-11T07:04:53.639Z,26.02
2023-04-11T07:05:53.562Z,26.02
2023-04-11T07:06:53.684Z,25.98
2023-04-11T07:07:53.567Z,26.02
2023-04-11T07:08:53.530Z,26.01
2023-04-11T07:09:53.488Z,26.01
2023-04-11T07:10:53.502Z,25.99
2023-04-11T07:11:53.474Z,26.01
2023-04-11T07:12:53.432Z,26.02
2023-04-11T07:13:53.608Z,25.99
2023-04-11T07:14:53.629Z,25.99
2023-04-11T07:15:53.390Z,26.01
2023-04-11T07:16:53.362Z,26.01
2023-04-11T07:17:53.424Z,25.99
2023-04-11T07:18:53.476Z,25.99
2023-04-11T07:19:53.515Z,25.99
2023-04-11T07:20:53.559Z,26.01
2023-04-11T07:21:53.596Z,25.99
2023-04-11T07:22:54.642Z,25.99
2023-04-11T07:23:53.781Z,26.01
2023-04-11T07:24:53.600Z,26.01
2023-04-11T07:25:53.571Z,25.99
2023-04-11T07:26:53.566Z,25.99
2023-04-11T07:27:53.559Z,26.02
2023-04-11T07:28:53.527Z,26.01
2023-04-11T07:29:53.493Z,26.02
2023-04-11T07:30:53.569Z,26.01
2023-04-11T07:31:53.536Z,26.03
2023-04-11T07:32:53.573Z,26.01
2023-04-11T07:33:53.490Z,26.03
2023-04-11T07:34:53.394Z,26.02
2023-04-11T07:35:53.538Z,26.02
2023-04-11T07:36:53.371Z,25.99
2023-04-11T07:37:53.342Z,26.03
2023-04-11T07:38:53.301Z,25.99
2023-04-11T07:39:53.270Z,26.02
2023-04-11T07:40:53.259Z,26.02
2023-04-11T07:41:53.252Z,26.02
2023-04-11T07:42:53.491Z,26.05
2023-04-11T07:43:53.186Z,26.05
2023-04-11T07:44:53.165Z,26.02
2023-04-11T07:45:53.188Z,26.01
2023-04-11T07:46:53.291Z,26.03
2023-04-11T07:47:53.300Z,26.03
2023-04-11T07:48:53.315Z,26.02
2023-04-11T07:49:53.357Z,26.03
2023-04-11T07:50:53.441Z,26.02
2023-04-11T07:51:53.499Z,26.01
2023-04-11T07:52:53.560Z,26.05
2023-04-11T07:53:53.606Z,26.05
2023-04-11T07:54:53.579Z,26.03
2023-04-11T07:55:53.673Z,26.03
2023-04-11T07:56:53.681Z,26.06
2023-04-11T07:57:53.732Z,26.03
2023-04-11T07:58:53.779Z,26.03
2023-04-11T07:59:53.859Z,26.02
2023-04-11T08:00:53.871Z,26.03
2023-04-11T08:01:53.951Z,26.01
2023-04-11T08:02:54.223Z,26.02
2023-04-11T08:03:54.197Z,26.02
2023-04-11T08:04:54.114Z,26.02
2023-04-11T08:05:54.108Z,26.02
2023-04-11T08:06:54.132Z,25.88
2023-04-11T08:07:54.153Z,25.95
2023-04-11T08:08:54.224Z,25.98
2023-04-11T08:09:54.293Z,25.94
2023-04-11T08:10:54.331Z,25.96
2023-04-11T08:11:54.407Z,25.98
2023-04-11T08:12:54.446Z,25.91
2023-04-11T08:13:54.821Z,25.85
2023-04-11T08:14:54.529Z,25.91
2023-04-11T08:15:54.507Z,25.94
2023-04-11T08:16:54.600Z,25.91
2023-04-11T08:17:54.506Z,25.80
2023-04-11T08:18:54.464Z,25.77
2023-04-11T08:19:54.481Z,25.61
2023-04-11T08:20:54.456Z,25.67
2023-04-11T08:21:54.423Z,25.71
2023-04-11T08:22:54.439Z,25.70
2023-04-11T08:23:54.650Z,25.47
2023-04-11T08:24:54.426Z,25.60
2023-04-11T08:25:54.392Z,25.64
2023-04-11T08:26:54.410Z,25.57
2023-04-11T08:27:54.476Z,25.65
2023-04-11T08:28:54.397Z,25.65
2023-04-11T08:29:54.412Z,25.68
2023-04-11T08:30:54.550Z,25.70
2023-04-11T08:31:54.543Z,25.73
2023-04-11T08:32:54.611Z,25.75
2023-04-11T08:33:55.229Z,25.75
2023-04-11T08:34:54.695Z,25.77
2023-04-11T08:35:54.811Z,25.75
2023-04-11T08:36:54.807Z,25.71
2023-04-11T08:37:54.821Z,25.61
2023-04-11T08:38:54.877Z,25.60
2023-04-11T08:39:54.849Z,25.51
2023-04-11T08:40:54.872Z,25.41
2023-04-11T08:41:54.862Z,25.40
2023-04-11T08:42:54.925Z,25.32
2023-04-11T08:43:55.286Z,25.28
2023-04-11T08:44:54.981Z,25.20
2023-04-11T08:45:55.060Z,25.16
2023-04-11T08:46:55.055Z,25.15
2023-04-11T08:47:55.172Z,25.02
2023-04-11T08:48:55.147Z,25.01
2023-04-11T08:49:55.156Z,24.88
2023-04-11T08:50:55.296Z,24.91
2023-04-11T08:51:55.251Z,24.93
2023-04-11T08:52:55.257Z,25.02
2023-04-11T08:53:55.427Z,25.08
2023-04-11T08:54:55.336Z,25.12
2023-04-11T08:55:55.317Z,25.19
2023-04-11T08:56:55.321Z,25.25
2023-04-11T08:57:55.360Z,25.29
2023-04-11T08:58:55.322Z,25.32
2023-04-11T08:59:55.339Z,25.37
2023-04-11T09:00:55.357Z,25.41
2023-04-11T09:01:55.460Z,25.43
2023-04-11T09:02:55.625Z,25.47
2023-04-11T09:03:55.823Z,25.51
2023-04-11T09:04:55.532Z,25.56
2023-04-11T09:05:55.533Z,25.58
2023-04-11T09:06:55.523Z,25.63
2023-04-11T09:07:55.555Z,25.67
2023-04-11T09:08:55.553Z,25.68
2023-04-11T09:09:55.524Z,25.73
2023-04-11T09:10:55.539Z,25.74
2023-04-11T09:11:55.555Z,25.77
2023-04-11T09:12:55.555Z,25.80
2023-04-11T09:13:55.773Z,25.81
2023-04-11T09:14:55.620Z,25.85
2023-04-11T09:15:55.589Z,25.87
2023-04-11T09:16:55.603Z,25.89
2023-04-11T09:17:57.001Z,25.91
2023-04-11T09:18:56.141Z,25.94
2023-04-11T09:19:55.915Z,25.95
2023-04-11T09:20:55.922Z,25.96
2023-04-11T09:21:55.952Z,25.96
2023-04-11T09:22:56.000Z,25.99
2023-04-11T09:23:56.238Z,26.03
2023-04-11T09:24:56.161Z,26.06
2023-04-11T09:25:56.111Z,26.08
2023-04-11T09:26:56.397Z,26.08
2023-04-11T09:27:56.178Z,26.11
2023-04-11T09:28:56.616Z,26.12
2023-04-11T09:29:56.250Z,26.15
2023-04-11T09:30:56.341Z,26.16
2023-04-11T09:31:56.346Z,26.16
2023-04-11T09:32:56.463Z,26.18
2023-04-11T09:33:56.957Z,26.18
2023-04-11T09:34:56.514Z,26.20
2023-04-11T09:35:56.520Z,26.11
2023-04-11T09:36:56.494Z,25.81
2023-04-11T09:37:57.238Z,25.95
2023-04-11T09:38:56.468Z,25.99
2023-04-11T09:39:56.435Z,26.01
2023-04-11T09:40:56.404Z,25.61
2023-04-11T09:41:56.412Z,25.56
2023-04-11T09:42:56.650Z,25.48
2023-04-11T09:43:56.579Z,25.37
2023-04-11T09:44:56.330Z,24.99
2023-04-11T09:45:56.305Z,24.92
2023-04-11T09:46:56.355Z,24.85
2023-04-11T09:47:56.357Z,25.01
2023-04-11T09:48:56.345Z,25.16
2023-04-11T09:49:56.272Z,25.23
2023-04-11T09:50:58.769Z,25.33
2023-04-11T09:51:56.229Z,25.41
2023-04-11T09:52:58.884Z,25.50
2023-04-11T09:53:56.410Z,25.56
2023-04-11T09:54:56.143Z,25.61
2023-04-11T09:55:56.113Z,25.67
2023-04-11T09:56:56.079Z,25.73
2023-04-11T09:57:56.103Z,25.75
2023-04-11T09:58:56.169Z,25.81
2023-04-11T09:59:56.046Z,25.88
2023-04-11T10:00:55.973Z,25.91
2023-04-11T10:01:56.239Z,25.94
2023-04-11T10:02:56.041Z,25.47
2023-04-11T10:03:56.446Z,25.67
2023-04-11T10:04:55.878Z,25.74
2023-04-11T10:05:55.859Z,25.81
2023-04-11T10:06:55.817Z,25.84
2023-04-11T10:07:55.792Z,25.89
2023-04-11T10:08:56.016Z,25.95
2023-04-11T10:09:55.725Z,25.96
2023-04-11T10:10:55.687Z,25.99
2023-04-11T10:11:55.663Z,26.03
2023-04-11T10:12:55.644Z,26.06
2023-04-11T10:13:55.761Z,26.09
2023-04-11T10:14:55.573Z,26.12
2023-04-11T10:15:55.613Z,26.16
2023-04-11T10:16:55.711Z,26.20
2023-04-11T10:17:55.552Z,26.23
2023-04-11T10:18:55.572Z,26.26
2023-04-11T10:19:55.535Z,26.25
2023-04-11T10:20:55.584Z,26.28
2023-04-11T10:21:55.656Z,26.29
2023-04-11T10:22:55.619Z,26.29
2023-04-11T10:23:55.733Z,26.29
2023-04-11T10:24:55.577Z,26.29
2023-04-11T10:25:55.724Z,26.29
2023-04-11T10:26:55.539Z,26.28
2023-04-11T10:27:55.487Z,26.30
2023-04-11T10:28:55.531Z,26.29
2023-04-11T10:29:55.437Z,26.30
2023-04-11T10:30:55.389Z,26.32
2023-04-11T10:31:55.518Z,26.32
2023-04-11T10:32:55.445Z,26.30
2023-04-11T10:33:55.718Z,26.30
2023-04-11T10:34:55.422Z,26.32
2023-04-11T10:35:55.543Z,26.30
2023-04-11T10:36:55.501Z,26.29
2023-04-11T10:37:55.527Z,26.33
2023-04-11T10:38:55.642Z,26.36
2023-04-11T10:39:55.583Z,26.35
2023-04-11T10:40:55.592Z,26.36
2023-04-11T10:41:55.612Z,26.39
2023-04-11T10:42:55.643Z,26.42
2023-04-11T10:43:55.869Z,26.43
2023-04-11T10:44:55.683Z,26.44
2023-04-11T10:45:55.745Z,26.47
2023-04-11T10:46:55.863Z,26.50
2023-04-11T10:47:55.778Z,26.51
2023-04-11T10:48:55.793Z,26.51
2023-04-11T10:49:55.760Z,26.57
2023-04-11T10:50:55.770Z,26.53
2023-04-11T10:51:55.794Z,26.53
2023-04-11T10:52:55.802Z,26.51
2023-04-11T10:53:55.945Z,26.53
2023-04-11T10:54:55.854Z,26.49
2023-04-11T10:55:55.860Z,26.50
2023-04-11T10:56:55.873Z,26.47
2023-04-11T10:57:55.849Z,26.47
2023-04-11T10:58:55.879Z,26.46
2023-04-11T10:59:55.804Z,26.46
2023-04-11T11:00:55.800Z,26.47
2023-04-11T11:01:55.885Z,26.46
2023-04-11T11:02:55.794Z,26.46
2023-04-11T11:03:55.936Z,26.46
2023-04-11T11:04:55.827Z,26.46
2023-04-11T11:05:55.674Z,26.46
2023-04-11T11:06:57.397Z,26.44
2023-04-11T11:07:55.639Z,26.50
2023-04-11T11:08:55.609Z,26.49
2023-04-11T11:09:55.614Z,26.49
2023-04-11T11:10:56.321Z,26.50
2023-04-11T11:11:55.581Z,26.49
2023-04-11T11:12:55.585Z,26.49
2023-04-11T11:13:55.760Z,26.50
2023-04-11T11:14:55.624Z,26.51
2023-04-11T11:15:55.652Z,26.51
2023-04-11T11:16:55.700Z,26.53
2023-04-11T11:17:55.682Z,26.53
2023-04-11T11:18:55.755Z,26.56
2023-04-11T11:19:55.697Z,26.54
2023-04-11T11:20:55.665Z,26.56
2023-04-11T11:21:55.660Z,26.54
2023-04-11T11:22:55.646Z,26.54
2023-04-11T11:23:55.952Z,26.53
2023-04-11T11:24:55.606Z,26.56
2023-04-11T11:25:55.586Z,26.56
2023-04-11T11:26:55.570Z,26.57
2023-04-11T11:27:55.588Z,26.61
2023-04-11T11:28:55.678Z,26.28
2023-04-11T11:29:55.607Z,26.40
2023-04-11T11:30:55.755Z,26.16
2023-04-11T11:31:55.632Z,26.32
2023-04-11T11:32:55.478Z,26.33
2023-04-11T11:33:58.261Z,26.36
2023-04-11T11:34:56.521Z,26.36
2023-04-11T11:35:55.474Z,26.36
2023-04-11T11:36:55.566Z,26.38
2023-04-11T11:37:55.434Z,26.38
2023-04-11T11:38:55.567Z,26.39
2023-04-11T11:39:55.404Z,26.39
2023-04-11T11:40:55.410Z,26.43
2023-04-11T11:41:55.402Z,26.42
2023-04-11T11:42:55.370Z,26.43
2023-04-11T11:43:55.480Z,26.44
2023-04-11T11:44:55.318Z,26.43
2023-04-11T11:45:55.408Z,26.43
2023-04-11T11:46:55.344Z,26.44
2023-04-11T11:47:55.417Z,26.42
2023-04-11T11:48:55.850Z,26.43
2023-04-11T11:49:55.596Z,26.43
2023-04-11T11:50:55.485Z,26.40
2023-04-11T11:51:55.526Z,26.39
2023-04-11T11:52:55.572Z,26.40
2023-04-11T11:53:55.587Z,26.40
2023-04-11T11:54:55.586Z,26.38
2023-04-11T11:55:55.633Z,26.40
2023-04-11T11:56:55.650Z,26.39
2023-04-11T11:57:55.763Z,26.39
2023-04-11T11:58:55.967Z,26.38
2023-04-11T11:59:55.744Z,26.39
2023-04-11T12:00:55.780Z,26.39
2023-04-11T12:01:55.870Z,26.38
2023-04-11T12:02:56.056Z,26.36
2023-04-11T12:03:56.299Z,26.35
2023-04-11T12:04:56.234Z,26.36
2023-04-11T12:05:55.959Z,26.35
2023-04-11T12:06:55.993Z,26.36
2023-04-11T12:07:56.065Z,26.35
2023-04-11T12:08:56.066Z,26.35
2023-04-11T12:09:56.100Z,26.33
2023-04-11T12:10:56.103Z,26.36
2023-04-11T12:11:56.139Z,26.33
2023-04-11T12:12:56.184Z,26.36
2023-04-11T12:13:56.422Z,26.35
2023-04-11T12:14:56.225Z,26.36
2023-04-11T12:15:56.333Z,26.35
2023-04-11T12:16:56.327Z,26.35
2023-04-11T12:17:56.377Z,26.35
2023-04-11T12:18:56.369Z,26.35
2023-04-11T12:19:56.432Z,26.35
2023-04-11T12:20:56.458Z,26.32
2023-04-11T12:21:56.464Z,26.32
2023-04-11T12:22:56.545Z,26.29
2023-04-11T12:23:56.659Z,26.32
2023-04-11T12:24:56.571Z,26.29
2023-04-11T12:25:56.614Z,26.29
2023-04-11T12:27:06.365Z,26.28
2023-04-11T12:27:57.644Z,26.28
2023-04-11T12:28:56.759Z,26.26
2023-04-11T12:29:56.573Z,26.25
2023-04-11T12:30:56.570Z,26.25
2023-04-11T12:31:56.515Z,26.23
2023-04-11T12:32:56.509Z,26.25
2023-04-11T12:33:56.610Z,26.25
2023-04-11T12:34:56.481Z,26.23
2023-04-11T12:35:56.484Z,26.23
2023-04-11T12:36:56.506Z,26.22
2023-04-11T12:37:56.566Z,26.23
2023-04-11T12:38:56.769Z,26.18
2023-04-11T12:39:56.642Z,26.20
2023-04-11T12:41:13.822Z,26.22
2023-04-11T12:41:57.668Z,26.19
2023-04-11T12:42:57.526Z,26.19
2023-04-11T12:43:56.788Z,26.20
2023-04-11T12:44:56.586Z,26.18
2023-04-11T12:45:56.574Z,26.18
2023-04-11T12:46:56.586Z,26.19
2023-04-11T12:47:56.577Z,26.19
2023-04-11T12:48:56.618Z,26.19
2023-04-11T12:49:56.527Z,26.19
2023-04-11T12:50:56.589Z,26.18
2023-04-11T12:51:56.625Z,26.19
2023-04-11T12:52:56.659Z,26.19